Time;durP1;ratioP1;P1;durP2;ratioP2;P2;SDS_P1;SDS_P2;PMS_P1;PMS_P2;Temp;Humidity;BMP_temperature;BMP_pressure;BME280_temperature;BME280_humidity;BME280_pressure;Samples;Min_cycle;Max_cycle;Signal;HPM_P1;HPM_P2
2022/07/26 00:02:01;;;;;;;0.22;0.22;;;24.70;83.50;;;;;;4914828;29;20032;-63
2022/07/26 00:04:27;;;;;;;0.00;0.00;;;24.50;83.90;;;;;;4929105;29;20162;-64
2022/07/26 00:06:53;;;;;;;0.08;0.08;;;24.50;83.90;;;;;;4929606;29;20032;-63
2022/07/26 00:09:19;;;;;;;0.55;0.28;;;24.50;83.60;;;;;;4913335;29;20103;-63
2022/07/26 00:11:45;;;;;;;0.08;0.08;;;24.40;83.80;;;;;;4914626;29;20501;-63
2022/07/26 00:14:10;;;;;;;0.17;0.15;;;24.50;83.80;;;;;;4912983;29;20036;-63
2022/07/26 00:16:37;;;;;;;3.15;0.80;;;24.50;84.00;;;;;;4914444;29;20044;-63
2022/07/26 00:19:04;;;;;;;0.00;0.00;;;24.50;83.50;;;;;;4914290;29;20493;-63
2022/07/26 00:21:29;;;;;;;0.00;0.00;;;24.50;83.40;;;;;;4929127;29;20050;-63
2022/07/26 00:23:56;;;;;;;0.00;0.00;;;24.40;83.60;;;;;;4915385;29;20035;-63
2022/07/26 00:26:22;;;;;;;0.63;0.45;;;24.40;83.60;;;;;;4932729;29;20119;-63
2022/07/26 00:28:47;;;;;;;0.60;0.60;;;24.40;83.60;;;;;;4917965;29;20119;-63
2022/07/26 00:31:13;;;;;;;0.08;0.08;;;24.30;83.80;;;;;;4932466;29;20028;-63
2022/07/26 00:33:39;;;;;;;0.17;0.17;;;24.20;84.10;;;;;;4917678;29;20060;-63
2022/07/26 00:36:06;;;;;;;1.10;0.65;;;24.20;84.90;;;;;;4917780;29;20032;-64
2022/07/26 00:38:32;;;;;;;3.85;0.50;;;24.10;84.40;;;;;;4918141;29;20028;-63
2022/07/26 00:40:58;;;;;;;0.10;0.10;;;24.20;84.50;;;;;;4917574;29;20036;-63
2022/07/26 00:43:24;;;;;;;0.00;0.00;;;24.10;85.30;;;;;;4916103;29;20567;-64
2022/07/26 00:45:50;;;;;;;0.22;0.08;;;24.10;85.10;;;;;;4917900;29;20064;-63
2022/07/26 00:48:17;;;;;;;0.40;0.25;;;24.00;85.00;;;;;;4916803;29;20476;-63
2022/07/26 00:50:43;;;;;;;0.00;0.00;;;24.00;85.20;;;;;;4917482;29;20066;-64
2022/07/26 00:53:09;;;;;;;0.35;0.28;;;24.00;85.40;;;;;;4915949;29;20898;-63
2022/07/26 00:55:34;;;;;;;0.00;0.00;;;24.00;85.70;;;;;;4917538;29;20130;-63
2022/07/26 00:58:01;;;;;;;0.00;0.00;;;24.00;85.90;;;;;;4917571;29;20063;-63
2022/07/26 01:00:27;;;;;;;0.70;0.45;;;24.00;86.20;;;;;;4915881;29;20032;-63
2022/07/26 01:02:55;;;;;;;0.35;0.30;;;24.00;86.40;;;;;;4916546;29;20088;-63
2022/07/26 01:05:22;;;;;;;0.20;0.20;;;24.00;86.40;;;;;;4913079;29;20036;-63
2022/07/26 01:07:49;;;;;;;0.00;0.00;;;24.00;87.00;;;;;;4911787;29;20115;-63
2022/07/26 01:10:15;;;;;;;0.00;0.00;;;23.90;87.10;;;;;;4931276;29;20412;-64
2022/07/26 01:12:42;;;;;;;0.00;0.00;;;23.80;87.40;;;;;;4912811;29;20037;-63
2022/07/26 01:15:10;;;;;;;0.00;0.00;;;23.80;87.60;;;;;;4898217;29;20028;-63
2022/07/26 01:17:36;;;;;;;0.15;0.15;;;23.70;87.80;;;;;;4898193;29;20025;-63
2022/07/26 01:20:04;;;;;;;0.00;0.00;;;23.70;87.60;;;;;;4912566;29;20052;-63
2022/07/26 01:22:30;;;;;;;0.20;0.20;;;23.80;87.90;;;;;;4897660;29;20029;-64
2022/07/26 01:24:56;;;;;;;0.00;0.00;;;23.80;87.50;;;;;;4911304;29;20035;-64
2022/07/26 01:27:22;;;;;;;0.00;0.00;;;23.80;87.40;;;;;;4931653;29;20043;-64
2022/07/26 01:29:48;;;;;;;0.10;0.10;;;23.70;87.70;;;;;;4915616;29;20032;-64
2022/07/26 01:32:14;;;;;;;0.00;0.00;;;23.60;88.10;;;;;;4916512;29;20245;-64
2022/07/26 01:34:40;;;;;;;0.00;0.00;;;23.40;88.60;;;;;;4931635;29;20032;-64
2022/07/26 01:37:06;;;;;;;0.00;0.00;;;23.40;88.80;;;;;;4916788;29;20040;-64
2022/07/26 01:39:31;;;;;;;0.20;0.20;;;23.40;88.90;;;;;;4916446;29;20036;-64
2022/07/26 01:41:58;;;;;;;0.10;0.10;;;23.20;89.50;;;;;;4930997;29;20032;-64
2022/07/26 01:44:23;;;;;;;0.00;0.00;;;23.10;89.90;;;;;;4916850;29;20457;-64
2022/07/26 01:46:49;;;;;;;0.10;0.10;;;23.00;90.20;;;;;;4916563;29;20071;-64
2022/07/26 01:49:15;;;;;;;0.05;0.00;;;22.90;90.30;;;;;;4916322;29;20481;-64
2022/07/26 01:51:42;;;;;;;0.00;0.00;;;22.90;90.30;;;;;;4916672;29;20035;-63
2022/07/26 01:54:08;;;;;;;0.93;0.25;;;23.00;90.40;;;;;;4915780;29;20603;-64
2022/07/26 01:56:34;;;;;;;0.32;0.13;;;23.10;90.30;;;;;;4931361;29;20453;-64
2022/07/26 01:59:00;;;;;;;0.00;0.00;;;23.10;90.20;;;;;;4914860;29;20057;-64
2022/07/26 02:01:25;;;;;;;0.00;0.00;;;23.20;90.30;;;;;;4931373;29;20088;-64
2022/07/26 02:03:51;;;;;;;0.25;0.25;;;23.00;90.30;;;;;;4930337;29;20039;-64
2022/07/26 02:06:17;;;;;;;0.10;0.10;;;23.10;90.30;;;;;;4915123;29;20028;-64
2022/07/26 02:08:43;;;;;;;0.03;0.03;;;23.00;90.30;;;;;;4930087;29;20115;-64
2022/07/26 02:11:08;;;;;;;0.00;0.00;;;23.00;90.30;;;;;;4931008;29;20040;-64
2022/07/26 02:13:40;;;;;;;2.92;1.23;;;23.00;90.30;;;;;;4915735;29;20040;-64
2022/07/26 02:16:13;;;;;;;0.00;0.00;;;23.00;90.30;;;;;;4916271;29;20091;-64
2022/07/26 02:18:41;;;;;;;0.00;0.00;;;22.90;90.40;;;;;;4930061;29;20051;-64
2022/07/26 02:21:07;;;;;;;0.10;0.10;;;22.90;90.80;;;;;;4916359;29;20532;-64
2022/07/26 02:23:34;;;;;;;0.10;0.10;;;22.90;90.40;;;;;;4930412;29;20040;-64
2022/07/26 02:26:00;;;;;;;0.08;0.03;;;22.90;90.50;;;;;;4940425;23;20105;-63
2022/07/26 02:28:26;;;;;;;0.00;0.00;;;22.80;90.70;;;;;;4981407;28;20039;-63
2022/07/26 02:30:52;;;;;;;0.00;0.00;;;22.70;90.90;;;;;;4971787;28;20046;-64
2022/07/26 02:33:19;;;;;;;0.80;0.65;;;22.50;91.10;;;;;;4972837;28;20495;-64
2022/07/26 02:35:46;;;;;;;0.17;0.17;;;22.50;91.20;;;;;;4968859;28;20035;-63
2022/07/26 02:38:14;;;;;;;0.10;0.10;;;22.50;91.40;;;;;;4953728;28;20039;-63
2022/07/26 02:40:42;;;;;;;0.80;0.55;;;22.40;91.40;;;;;;4953541;28;20452;-64
2022/07/26 02:43:09;;;;;;;0.00;0.00;;;22.40;91.40;;;;;;4952408;29;20106;-63
2022/07/26 02:45:35;;;;;;;0.10;0.10;;;22.30;91.50;;;;;;4952668;28;20023;-64
2022/07/26 02:48:01;;;;;;;0.10;0.10;;;22.20;91.80;;;;;;4952327;29;20039;-63
2022/07/26 02:50:28;;;;;;;1.13;0.68;;;22.20;91.90;;;;;;4953385;28;20047;-63
2022/07/26 02:52:54;;;;;;;0.90;0.65;;;22.10;91.90;;;;;;4953529;28;20035;-64
2022/07/26 02:55:23;;;;;;;0.00;0.00;;;22.10;92.00;;;;;;4952248;29;20404;-63
2022/07/26 02:57:49;;;;;;;0.10;0.10;;;22.00;92.20;;;;;;4952538;29;20038;-63
2022/07/26 03:00:19;;;;;;;0.55;0.40;;;22.00;92.60;;;;;;4953290;28;20023;-63
2022/07/26 03:02:46;;;;;;;0.22;0.15;;;22.00;92.30;;;;;;4949543;28;20491;-64
2022/07/26 03:05:12;;;;;;;0.00;0.00;;;22.00;92.40;;;;;;4945107;28;20040;-64
2022/07/26 03:07:37;;;;;;;0.10;0.10;;;21.90;92.60;;;;;;4945936;28;20118;-63
2022/07/26 03:10:04;;;;;;;0.95;0.20;;;21.90;92.70;;;;;;4964494;28;20026;-63
2022/07/26 03:12:30;;;;;;;0.60;0.60;;;21.80;92.90;;;;;;4945510;29;20027;-64
2022/07/26 03:14:56;;;;;;;0.00;0.00;;;21.70;93.20;;;;;;4953169;28;20090;-63
2022/07/26 03:17:22;;;;;;;0.00;0.00;;;21.70;93.40;;;;;;4937942;28;20403;-63
2022/07/26 03:19:48;;;;;;;0.65;0.45;;;21.70;93.50;;;;;;4933377;29;20444;-64
2022/07/26 03:22:13;;;;;;;0.30;0.20;;;21.70;93.80;;;;;;4933909;29;20627;-64
2022/07/26 03:24:39;;;;;;;0.00;0.00;;;21.60;93.70;;;;;;4937831;29;20027;-63
2022/07/26 03:27:05;;;;;;;0.45;0.43;;;21.60;94.10;;;;;;4953181;28;20042;-64
2022/07/26 03:29:30;;;;;;;0.47;0.45;;;21.50;94.30;;;;;;4952761;29;20063;-64
2022/07/26 03:31:56;;;;;;;0.03;0.03;;;21.50;94.30;;;;;;4953249;28;20035;-63
2022/07/26 03:34:22;;;;;;;0.35;0.30;;;21.50;94.40;;;;;;4952097;28;20035;-63
2022/07/26 03:36:48;;;;;;;1.15;0.75;;;21.50;94.50;;;;;;4953022;28;20034;-63
2022/07/26 03:39:14;;;;;;;0.10;0.00;;;21.60;94.40;;;;;;4967375;28;20118;-64
2022/07/26 03:41:40;;;;;;;8.57;0.80;;;21.60;94.50;;;;;;4948074;29;20103;-64
2022/07/26 03:44:06;;;;;;;0.45;0.45;;;21.60;94.40;;;;;;4933212;29;20060;-64
2022/07/26 03:46:32;;;;;;;0.70;0.30;;;21.60;94.40;;;;;;4934047;29;20071;-64
2022/07/26 03:48:57;;;;;;;3.40;0.43;;;21.50;94.40;;;;;;4933215;29;20396;-64
2022/07/26 03:51:23;;;;;;;0.00;0.00;;;21.60;94.30;;;;;;4948648;29;20071;-64
2022/07/26 03:53:49;;;;;;;0.65;0.55;;;21.60;94.10;;;;;;4933084;29;20046;-64
2022/07/26 03:56:33;;;;;;;0.13;0.10;;;21.60;94.20;;;;;;4921383;28;20050;-63
2022/07/26 03:59:07;;;;;;;0.10;0.10;;;21.60;94.20;;;;;;4934863;29;20116;-63
2022/07/26 04:01:34;;;;;;;0.05;0.05;;;21.60;94.20;;;;;;4951871;29;20481;-64
2022/07/26 04:04:00;;;;;;;1.20;0.52;;;21.60;94.30;;;;;;4936821;29;20099;-64
2022/07/26 04:06:27;;;;;;;0.00;0.00;;;21.70;94.20;;;;;;4936995;29;20511;-64
2022/07/26 04:08:53;;;;;;;1.65;0.90;;;21.70;94.40;;;;;;4937112;29;20028;-65
2022/07/26 04:11:19;;;;;;;0.10;0.10;;;21.60;94.70;;;;;;4959687;28;20023;-63
2022/07/26 04:13:45;;;;;;;0.40;0.40;;;21.60;94.90;;;;;;4967980;28;20093;-63
2022/07/26 04:16:11;;;;;;;0.00;0.00;;;21.50;95.00;;;;;;4952426;28;20039;-63
2022/07/26 04:18:37;;;;;;;0.20;0.20;;;21.50;95.20;;;;;;4955988;28;20041;-64
2022/07/26 04:21:03;;;;;;;0.30;0.10;;;21.50;95.40;;;;;;4970635;28;20555;-63
2022/07/26 04:23:29;;;;;;;0.00;0.00;;;21.60;95.50;;;;;;4970577;28;20484;-63
2022/07/26 04:25:54;;;;;;;0.20;0.20;;;21.50;95.70;;;;;;4970070;28;20035;-64
2022/07/26 04:28:20;;;;;;;2.35;1.02;;;21.50;95.80;;;;;;4956182;28;20027;-65
2022/07/26 04:30:46;;;;;;;0.20;0.20;;;21.50;95.60;;;;;;4970377;28;20046;-64
2022/07/26 04:33:12;;;;;;;0.55;0.22;;;21.50;95.80;;;;;;4955303;28;20035;-64
2022/07/26 04:35:37;;;;;;;0.10;0.10;;;21.60;96.40;;;;;;4970349;28;20070;-65
2022/07/26 04:38:03;;;;;;;0.68;0.68;;;21.70;96.70;;;;;;4955489;29;20031;-63
2022/07/26 04:40:32;;;;;;;0.38;0.30;;;21.40;96.90;;;;;;4955377;28;20031;-64
2022/07/26 04:43:00;;;;;;;0.28;0.28;;;21.40;96.20;;;;;;4954935;28;20479;-64
2022/07/26 04:45:26;;;;;;;0.10;0.10;;;21.50;96.30;;;;;;4955537;28;20031;-65
2022/07/26 04:47:52;;;;;;;0.63;0.63;;;21.50;96.00;;;;;;4970263;28;20093;-64
2022/07/26 04:50:20;;;;;;;0.00;0.00;;;21.60;94.00;;;;;;4954800;28;20047;-64
2022/07/26 04:52:48;;;;;;;0.35;0.17;;;21.70;93.40;;;;;;4955431;28;20090;-65
2022/07/26 04:55:14;;;;;;;0.10;0.08;;;21.80;93.10;;;;;;4969570;28;20031;-65
2022/07/26 04:57:40;;;;;;;0.00;0.00;;;21.80;92.70;;;;;;4940141;28;20437;-64
2022/07/26 05:00:10;;;;;;;0.00;0.00;;;21.70;92.90;;;;;;4958013;28;20538;-64
2022/07/26 05:02:36;;;;;;;0.00;0.00;;;21.50;93.10;;;;;;4955105;28;20041;-65
2022/07/26 05:05:03;;;;;;;0.00;0.00;;;21.60;93.20;;;;;;4954760;28;20395;-65
2022/07/26 05:07:46;;;;;;;0.00;0.00;;;21.50;93.20;;;;;;4969865;28;20037;-64
2022/07/26 05:10:15;;;;;;;0.03;0.03;;;21.50;93.60;;;;;;4954241;28;20199;-64
2022/07/26 05:12:41;;;;;;;0.00;0.00;;;21.60;93.60;;;;;;4949926;29;20032;-65
2022/07/26 05:15:08;;;;;;;0.00;0.00;;;21.60;93.70;;;;;;4935915;29;20199;-65
2022/07/26 05:17:38;;;;;;;0.32;0.32;;;21.70;94.00;;;;;;4950615;28;20110;-66
2022/07/26 05:20:06;;;;;;;0.00;0.00;;;21.70;94.00;;;;;;4934183;29;20031;-65
2022/07/26 05:22:36;;;;;;;0.00;0.00;;;21.70;94.20;;;;;;4934836;29;20561;-66
2022/07/26 05:25:03;;;;;;;0.00;0.00;;;21.80;94.20;;;;;;4950020;29;20471;-66
2022/07/26 05:27:29;;;;;;;0.10;0.00;;;21.80;94.20;;;;;;4935083;29;20068;-67
2022/07/26 05:29:55;;;;;;;1.33;0.98;;;21.80;94.30;;;;;;4935081;29;20043;-66
2022/07/26 05:32:23;;;;;;;0.00;0.00;;;21.70;94.30;;;;;;4935021;29;20031;-67
2022/07/26 05:34:49;;;;;;;0.22;0.22;;;21.70;94.50;;;;;;4934984;29;20036;-66
2022/07/26 05:37:15;;;;;;;0.10;0.10;;;21.70;94.80;;;;;;4949596;29;20035;-65
2022/07/26 05:39:41;;;;;;;0.20;0.20;;;21.90;94.30;;;;;;4935158;29;20067;-65
2022/07/26 05:42:07;;;;;;;0.88;0.63;;;21.90;94.50;;;;;;4949561;29;20023;-64
2022/07/26 05:44:32;;;;;;;0.00;0.00;;;21.90;94.60;;;;;;4954572;28;20041;-63
2022/07/26 05:46:58;;;;;;;0.00;0.00;;;22.00;94.60;;;;;;4954449;28;20074;-63
2022/07/26 05:49:27;;;;;;;0.00;0.00;;;22.10;94.30;;;;;;4968922;28;20510;-64
2022/07/26 05:51:52;;;;;;;0.05;0.05;;;22.10;94.20;;;;;;4941533;28;20071;-65
2022/07/26 05:54:20;;;;;;;0.00;0.00;;;22.20;94.30;;;;;;4948649;29;20036;-65
2022/07/26 05:56:46;;;;;;;10.88;0.88;;;22.30;94.00;;;;;;4934937;29;20071;-65
2022/07/26 05:59:12;;;;;;;4.97;1.00;;;22.30;93.90;;;;;;4948917;29;20420;-65
2022/07/26 06:01:38;;;;;;;0.00;0.00;;;21.90;94.30;;;;;;4962490;28;20026;-65
2022/07/26 06:04:04;;;;;;;0.30;0.20;;;21.90;94.80;;;;;;4944833;28;20042;-65
2022/07/26 06:06:29;;;;;;;0.10;0.05;;;21.50;94.70;;;;;;4934991;29;20032;-64
2022/07/26 06:08:55;;;;;;;0.00;0.00;;;21.40;95.30;;;;;;4934809;29;20477;-64
2022/07/26 06:11:21;;;;;;;0.57;0.20;;;21.60;95.30;;;;;;4943441;29;20510;-65
2022/07/26 06:13:47;;;;;;;0.30;0.30;;;21.70;95.10;;;;;;4968014;28;20488;-65
2022/07/26 06:16:13;;;;;;;0.55;0.40;;;21.70;95.00;;;;;;4946895;28;20106;-65
2022/07/26 06:18:39;;;;;;;0.10;0.10;;;21.80;94.60;;;;;;4949146;28;20094;-65
2022/07/26 06:21:05;;;;;;;0.00;0.00;;;22.00;94.10;;;;;;4933905;29;20522;-65
2022/07/26 06:23:31;;;;;;;0.55;0.52;;;22.00;93.90;;;;;;4934379;29;20031;-64
2022/07/26 06:25:56;;;;;;;0.00;0.00;;;22.00;93.70;;;;;;4934028;29;20047;-66
2022/07/26 06:28:22;;;;;;;0.10;0.10;;;22.10;93.60;;;;;;4948719;28;20090;-65
2022/07/26 06:30:48;;;;;;;0.22;0.22;;;22.00;93.80;;;;;;4952284;28;20154;-68
2022/07/26 06:33:14;;;;;;;0.80;0.75;;;22.00;93.80;;;;;;4953081;28;20398;-67
2022/07/26 06:35:41;;;;;;;0.35;0.35;;;21.90;94.00;;;;;;4968142;28;20039;-68
2022/07/26 06:38:07;;;;;;;0.08;0.03;;;21.80;94.30;;;;;;4953655;28;20039;-70
2022/07/26 06:40:34;;;;;;;0.00;0.00;;;21.60;94.30;;;;;;4968255;28;20042;-66
2022/07/26 06:43:03;;;;;;;0.10;0.10;;;21.50;94.90;;;;;;4968073;28;20542;-67
2022/07/26 06:45:30;;;;;;;0.40;0.40;;;21.60;94.60;;;;;;4940668;28;20050;-67
2022/07/26 06:47:56;;;;;;;0.00;0.00;;;21.50;94.70;;;;;;4958789;28;20076;-67
2022/07/26 06:50:22;;;;;;;0.08;0.08;;;21.50;94.90;;;;;;4941824;28;20032;-68
2022/07/26 06:52:48;;;;;;;0.00;0.00;;;21.30;95.70;;;;;;4943654;28;20027;-67
2022/07/26 06:55:13;;;;;;;36.25;1.45;;;21.30;95.70;;;;;;4945058;29;20031;-67
2022/07/26 06:57:39;;;;;;;1.75;1.02;;;21.20;95.90;;;;;;4947668;28;20038;-67
2022/07/26 07:00:08;;;;;;;0.00;0.00;;;21.10;96.20;;;;;;4942189;28;20023;-67
2022/07/26 07:02:34;;;;;;;1.00;0.20;;;21.20;95.90;;;;;;4958969;28;20055;-68
2022/07/26 07:05:00;;;;;;;0.00;0.00;;;21.20;95.70;;;;;;4947776;29;20024;-68
2022/07/26 07:07:26;;;;;;;0.00;0.00;;;21.10;94.20;;;;;;4967910;28;20039;-68
2022/07/26 07:09:52;;;;;;;0.52;0.10;;;21.30;93.80;;;;;;4951327;28;20550;-68
2022/07/26 07:12:18;;;;;;;0.80;0.45;;;21.40;93.70;;;;;;4951010;29;20038;-68
2022/07/26 07:14:44;;;;;;;0.00;0.00;;;21.40;93.90;;;;;;4966811;28;20444;-69
2022/07/26 07:17:10;;;;;;;0.00;0.00;;;21.50;93.90;;;;;;4938439;28;20040;-68
2022/07/26 07:19:37;;;;;;;6.28;0.32;;;21.60;93.70;;;;;;4947973;28;20035;-68
2022/07/26 07:22:04;;;;;;;0.03;0.03;;;21.70;93.30;;;;;;4947939;29;20444;-67
2022/07/26 07:24:30;;;;;;;0.20;0.20;;;21.70;93.30;;;;;;4933946;29;20038;-68
2022/07/26 07:26:58;;;;;;;0.00;0.00;;;21.80;91.90;;;;;;4933668;29;20492;-69
2022/07/26 07:29:24;;;;;;;0.00;0.00;;;21.90;91.90;;;;;;4947932;29;20039;-68
2022/07/26 07:31:50;;;;;;;0.70;0.35;;;22.10;91.70;;;;;;4947960;29;20040;-68
2022/07/26 07:34:17;;;;;;;0.00;0.00;;;22.20;91.60;;;;;;4933218;28;20499;-68
2022/07/26 07:36:43;;;;;;;0.00;0.00;;;22.40;91.10;;;;;;4933723;29;20032;-69
2022/07/26 07:39:09;;;;;;;0.30;0.30;;;22.30;91.30;;;;;;4948507;29;20054;-67
2022/07/26 07:41:37;;;;;;;1.88;0.70;;;22.20;91.40;;;;;;4942675;29;20404;-66
2022/07/26 07:44:04;;;;;;;0.00;0.00;;;22.20;91.40;;;;;;4966677;28;20046;-66
2022/07/26 07:46:30;;;;;;;0.00;0.00;;;22.10;91.50;;;;;;4952551;28;20039;-66
2022/07/26 07:48:58;;;;;;;0.00;0.00;;;22.30;91.60;;;;;;4952255;28;20038;-67
2022/07/26 07:51:25;;;;;;;1.10;0.80;;;22.40;91.20;;;;;;4952152;28;20158;-66
2022/07/26 07:53:50;;;;;;;0.00;0.00;;;22.40;91.20;;;;;;4952249;28;20499;-67
2022/07/26 07:56:16;;;;;;;0.00;0.00;;;22.50;91.30;;;;;;4952516;28;20174;-67
2022/07/26 07:58:42;;;;;;;0.00;0.00;;;22.40;91.60;;;;;;4966848;28;20054;-67
2022/07/26 08:01:08;;;;;;;0.00;0.00;;;22.20;91.30;;;;;;4952373;28;20035;-66
2022/07/26 08:03:34;;;;;;;0.40;0.17;;;21.90;91.10;;;;;;4951669;28;20027;-66
2022/07/26 08:06:01;;;;;;;0.00;0.00;;;21.50;91.80;;;;;;4950223;29;20039;-66
2022/07/26 08:08:27;;;;;;;0.00;0.00;;;21.50;92.20;;;;;;4967028;28;20118;-67
2022/07/26 08:10:53;;;;;;;0.00;0.00;;;21.60;92.10;;;;;;4966349;28;20027;-67
2022/07/26 08:13:21;;;;;;;0.00;0.00;;;21.90;91.80;;;;;;4967022;28;20046;-67
2022/07/26 08:15:52;;;;;;;3.03;0.82;;;22.00;91.60;;;;;;4963669;28;20039;-65
2022/07/26 08:18:19;;;;;;;0.00;0.00;;;22.20;91.40;;;;;;4933058;29;20043;-66
2022/07/26 08:20:44;;;;;;;1.55;1.00;;;22.30;91.50;;;;;;4947760;28;20179;-66
2022/07/26 08:23:10;;;;;;;0.08;0.05;;;22.30;91.40;;;;;;4954454;28;20110;-66
2022/07/26 08:25:36;;;;;;;0.10;0.10;;;22.50;91.10;;;;;;4952140;28;20102;-67
2022/07/26 08:28:02;;;;;;;0.00;0.00;;;22.50;90.90;;;;;;4952014;28;20391;-66
2022/07/26 08:30:28;;;;;;;0.08;0.05;;;22.50;91.10;;;;;;4966714;28;20531;-66
2022/07/26 08:32:54;;;;;;;0.15;0.15;;;22.50;91.10;;;;;;4967239;28;20039;-66
2022/07/26 08:35:20;;;;;;;0.00;0.00;;;22.50;91.30;;;;;;4952152;28;20035;-66
2022/07/26 08:37:46;;;;;;;0.00;0.00;;;22.60;90.90;;;;;;4952512;28;20395;-66
2022/07/26 08:40:13;;;;;;;0.00;0.00;;;22.60;90.80;;;;;;4966429;28;20034;-66
2022/07/26 08:42:38;;;;;;;0.00;0.00;;;22.40;91.10;;;;;;4951769;28;20035;-65
2022/07/26 08:45:04;;;;;;;0.22;0.10;;;22.50;90.90;;;;;;4952805;28;20053;-65
2022/07/26 08:47:30;;;;;;;0.08;0.08;;;22.40;91.00;;;;;;4955478;28;20055;-66
2022/07/26 08:49:56;;;;;;;0.10;0.10;;;22.40;91.50;;;;;;4955081;28;20583;-65
2022/07/26 08:52:22;;;;;;;0.00;0.00;;;22.50;91.30;;;;;;4970241;28;20035;-65
2022/07/26 08:54:51;;;;;;;0.00;0.00;;;22.70;90.90;;;;;;4955614;28;20039;-63
2022/07/26 08:57:17;;;;;;;0.00;0.00;;;22.70;90.80;;;;;;4955198;28;20063;-66
2022/07/26 08:59:43;;;;;;;0.10;0.10;;;22.80;90.60;;;;;;4955260;28;20507;-65
2022/07/26 09:02:11;;;;;;;0.98;0.43;;;22.90;90.60;;;;;;4955091;28;20027;-66
2022/07/26 09:04:41;;;;;;;0.00;0.00;;;22.80;90.80;;;;;;4987859;28;20034;-66
2022/07/26 09:07:14;;;;;;;0.00;0.00;;;22.60;90.90;;;;;;4973383;28;20031;-66
2022/07/26 09:10:09;;;;;;;0.00;0.00;;;22.60;91.30;;;;;;4974027;28;20027;-65
2022/07/26 09:12:36;;;;;;;0.10;0.00;;;22.40;91.10;;;;;;4970198;28;20069;-66
2022/07/26 09:15:05;;;;;;;1.95;1.08;;;22.60;91.90;;;;;;4970092;28;20027;-65
2022/07/26 09:17:41;;;;;;;0.20;0.10;;;22.90;90.50;;;;;;4952694;28;20132;-65
2022/07/26 09:20:15;;;;;;;0.05;0.05;;;22.70;90.50;;;;;;4935350;29;20055;-66
2022/07/26 09:23:07;;;;;;;0.00;0.00;;;22.80;90.90;;;;;;4943524;29;20446;-67
2022/07/26 09:25:42;;;;;;;0.00;0.00;;;23.00;90.70;;;;;;4944712;29;20114;-67
2022/07/26 09:28:28;;;;;;;0.00;0.00;;;23.30;90.30;;;;;;4957720;28;20472;-66
2022/07/26 09:31:04;;;;;;;0.60;0.32;;;23.40;90.00;;;;;;4945642;29;20481;-66
2022/07/26 09:33:47;;;;;;;0.10;0.03;;;23.40;90.10;;;;;;4942826;29;20031;-66
2022/07/26 09:36:15;;;;;;;0.00;0.00;;;23.60;88.10;;;;;;4945862;29;20027;-66
2022/07/26 09:38:49;;;;;;;0.00;0.00;;;23.30;89.30;;;;;;4944872;28;20136;-66
2022/07/26 09:41:34;;;;;;;2.47;0.40;;;23.60;90.00;;;;;;4942987;29;20035;-66
2022/07/26 09:44:04;;;;;;;0.45;0.43;;;23.90;89.50;;;;;;4945746;29;20039;-66
2022/07/26 09:46:34;;;;;;;0.45;0.45;;;24.10;89.40;;;;;;4944383;28;20055;-66
2022/07/26 09:49:17;;;;;;;0.25;0.25;;;24.40;88.60;;;;;;4943968;29;20113;-66
2022/07/26 09:51:46;;;;;;;0.98;0.52;;;24.80;87.10;;;;;;4943319;29;20063;-66
2022/07/26 09:54:30;;;;;;;0.05;0.05;;;24.90;85.30;;;;;;4942637;28;20031;-65
2022/07/26 09:56:56;;;;;;;0.00;0.00;;;24.90;85.10;;;;;;4955520;28;20042;-65
2022/07/26 09:59:24;;;;;;;0.00;0.00;;;24.70;84.90;;;;;;4939832;29;20114;-66
2022/07/26 10:01:53;;;;;;;0.10;0.00;;;24.60;85.80;;;;;;4968625;28;20114;-66
2022/07/26 10:04:20;;;;;;;0.00;0.00;;;24.60;86.00;;;;;;4952271;28;20038;-65
2022/07/26 10:06:47;;;;;;;0.00;0.00;;;24.90;85.80;;;;;;4953194;29;20023;-66
2022/07/26 10:09:14;;;;;;;0.00;0.00;;;25.10;85.20;;;;;;4968272;28;20027;-66
2022/07/26 10:11:59;;;;;;;0.00;0.00;;;25.30;84.70;;;;;;4968823;28;20035;-66
2022/07/26 10:14:45;;;;;;;0.00;0.00;;;25.50;84.10;;;;;;4968136;28;20109;-65
2022/07/26 10:17:26;;;;;;;0.00;0.00;;;25.60;83.40;;;;;;4939647;28;20110;-66
2022/07/26 10:19:54;;;;;;;0.00;0.00;;;25.50;83.20;;;;;;4934488;29;20119;-66
2022/07/26 10:22:24;;;;;;;0.20;0.20;;;25.50;82.50;;;;;;4940922;29;20023;-67
2022/07/26 10:24:52;;;;;;;0.28;0.20;;;25.00;81.90;;;;;;4954666;28;20427;-65
2022/07/26 10:27:37;;;;;;;0.00;0.00;;;25.10;83.40;;;;;;4968242;28;20063;-66
2022/07/26 10:30:18;;;;;;;0.08;0.08;;;25.00;82.90;;;;;;4953023;28;20039;-65
2022/07/26 10:33:00;;;;;;;0.00;0.00;;;25.10;82.90;;;;;;4953310;28;20034;-66
2022/07/26 10:35:40;;;;;;;1.27;0.57;;;25.10;82.30;;;;;;4953795;28;20027;-66
2022/07/26 10:38:12;;;;;;;0.10;0.03;;;25.20;82.00;;;;;;4953303;28;20042;-65
2022/07/26 10:41:00;;;;;;;0.00;0.00;;;25.40;82.00;;;;;;4953055;28;20118;-66
2022/07/26 10:43:27;;;;;;;0.20;0.05;;;25.90;81.30;;;;;;4952918;28;20047;-66
2022/07/26 10:46:11;;;;;;;0.10;0.10;;;25.80;79.80;;;;;;4968370;28;20495;-66
2022/07/26 10:48:55;;;;;;;0.00;0.00;;;26.00;78.90;;;;;;4952181;28;20039;-66
2022/07/26 10:51:30;;;;;;;0.00;0.00;;;25.80;77.40;;;;;;4953413;28;20039;-66
2022/07/26 10:54:06;;;;;;;0.00;0.00;;;25.40;78.70;;;;;;4952908;28;20034;-67
2022/07/26 10:56:31;;;;;;;0.00;0.00;;;25.00;78.40;;;;;;4951717;29;20066;-66
2022/07/26 10:58:57;;;;;;;0.00;0.00;;;25.30;79.60;;;;;;4952896;28;20114;-66
2022/07/26 11:01:33;;;;;;;0.00;0.00;;;25.30;77.50;;;;;;4953228;28;20039;-66
2022/07/26 11:03:59;;;;;;;0.10;0.10;;;25.20;79.30;;;;;;4967603;28;20037;-66
2022/07/26 11:06:30;;;;;;;0.38;0.20;;;25.60;78.70;;;;;;4941894;29;20036;-66
2022/07/26 11:08:56;;;;;;;0.00;0.00;;;26.10;77.20;;;;;;4941917;28;20038;-67
2022/07/26 11:11:32;;;;;;;0.10;0.10;;;26.50;77.70;;;;;;4942172;28;20098;-65
2022/07/26 11:14:15;;;;;;;0.00;0.00;;;26.90;77.70;;;;;;4956602;28;20031;-66
2022/07/26 11:16:49;;;;;;;0.05;0.05;;;27.30;75.40;;;;;;4942609;29;20031;-66
2022/07/26 11:19:22;;;;;;;0.05;0.05;;;26.60;75.50;;;;;;4957529;28;20031;-66
2022/07/26 11:21:59;;;;;;;0.00;0.00;;;26.90;76.70;;;;;;4955884;28;20050;-66
2022/07/26 11:24:25;;;;;;;0.00;0.00;;;26.90;75.60;;;;;;4949394;29;20388;-66
2022/07/26 11:26:52;;;;;;;0.00;0.00;;;26.80;75.10;;;;;;4937591;28;20122;-66
2022/07/26 11:29:34;;;;;;;1.75;0.20;;;26.50;75.80;;;;;;4932005;29;20078;-66
2022/07/26 11:32:01;;;;;;;0.00;0.00;;;26.00;75.60;;;;;;4947880;29;20055;-66
2022/07/26 11:34:31;;;;;;;0.10;0.03;;;26.00;76.40;;;;;;4948198;28;20511;-66
2022/07/26 11:37:03;;;;;;;0.00;0.00;;;26.00;76.20;;;;;;4948086;29;20036;-66
2022/07/26 11:39:34;;;;;;;0.00;0.00;;;25.90;75.90;;;;;;4947737;29;20039;-66
2022/07/26 11:42:06;;;;;;;0.13;0.13;;;26.30;75.80;;;;;;4946824;29;20443;-66
2022/07/26 11:44:33;;;;;;;0.10;0.00;;;26.50;75.20;;;;;;4952810;28;20058;-66
2022/07/26 11:47:09;;;;;;;0.00;0.00;;;26.90;75.30;;;;;;4967474;28;20067;-66
2022/07/26 11:49:35;;;;;;;0.00;0.00;;;27.50;75.10;;;;;;4951246;29;20062;-75
2022/07/26 11:52:02;;;;;;;0.00;0.00;;;27.70;74.60;;;;;;4952842;28;20063;-77
2022/07/26 11:54:43;;;;;;;0.15;0.15;;;27.30;73.90;;;;;;4960837;28;20039;-77
2022/07/26 11:57:10;;;;;;;0.13;0.00;;;27.20;74.70;;;;;;4944636;29;20050;-77
2022/07/26 11:59:37;;;;;;;0.00;0.00;;;27.30;74.90;;;;;;4933462;29;20043;-77
2022/07/26 12:02:06;;;;;;;0.10;0.10;;;27.10;75.00;;;;;;4947674;28;20044;-77
2022/07/26 12:04:36;;;;;;;0.08;0.08;;;26.80;74.60;;;;;;4947770;28;20111;-77
2022/07/26 12:07:11;;;;;;;;;;;26.60;75.50;;;;;;4933401;29;20031;-77
2022/07/26 12:09:41;;;;;;;0.25;0.25;;;26.50;75.90;;;;;;4939673;29;20334;-77
2022/07/26 12:12:17;;;;;;;0.15;0.08;;;26.30;76.90;;;;;;4966822;28;20070;-77
2022/07/26 12:15:06;;;;;;;0.63;0.28;;;26.20;77.00;;;;;;4966547;28;20043;-77
2022/07/26 12:17:33;;;;;;;0.25;0.15;;;26.00;77.70;;;;;;4949727;28;20040;-77
2022/07/26 12:20:22;;;;;;;0.00;0.00;;;25.90;76.20;;;;;;4933232;29;20039;-77
2022/07/26 12:23:04;;;;;;;1.08;0.90;;;25.80;77.20;;;;;;4936175;29;20042;-77
2022/07/26 12:25:31;;;;;;;0.10;0.00;;;26.20;76.70;;;;;;4935328;29;20480;-77
2022/07/26 12:27:57;;;;;;;0.20;0.20;;;26.70;75.60;;;;;;4936577;29;20134;-77
2022/07/26 12:30:24;;;;;;;0.00;0.00;;;27.20;74.20;;;;;;4956482;28;20921;-77
2022/07/26 12:32:53;;;;;;;0.00;0.00;;;27.10;73.80;;;;;;4955407;28;20085;-77
2022/07/26 12:35:34;;;;;;;0.00;0.00;;;27.20;74.60;;;;;;4970255;28;20574;-77
2022/07/26 12:38:01;;;;;;;0.00;0.00;;;27.30;74.70;;;;;;4955844;28;20039;-76
2022/07/26 12:40:30;;;;;;;0.00;0.00;;;27.50;74.00;;;;;;4955337;28;20035;-76
2022/07/26 12:42:59;;;;;;;0.28;0.20;;;27.30;74.20;;;;;;4953730;29;20042;-77
2022/07/26 12:45:33;;;;;;;0.10;0.00;;;27.10;74.20;;;;;;4954513;28;20042;-76
2022/07/26 12:48:08;;;;;;;0.35;0.35;;;26.60;75.00;;;;;;4948507;28;20054;-76
2022/07/26 12:50:34;;;;;;;0.03;0.03;;;26.50;74.50;;;;;;4950256;29;20032;-76
2022/07/26 12:53:07;;;;;;;0.52;0.52;;;26.90;74.70;;;;;;4936108;29;20032;-76
2022/07/26 12:55:34;;;;;;;0.00;0.00;;;26.60;74.30;;;;;;4950999;28;20043;-77